Aviation Digital Data Service (ADDS)

Output produced by TAFs form (1739 UTC 21 April 2018)
found at http://aviationweather.gov/adds/tafs/
 
RJCC 211730Z 34014KT 9999 FEW030 BKN090 10/06 Q1015 RMK 1CU030 7AC090 A2999
TAF RJCC 211706Z 2118/2300 35013KT 9999 FEW010 SCT025 
     BECMG 2212/2215 18006KT